.
WxDataArchive / Data Records for 2010-12-19
2010-12-18 December 2010 2010-12-20

Data Records for Sunday, 19 December 2010

Time	Temp	Chill	HIndex	Humid	Dewpt	 Wind 	HiWind	WindDir	Rain 	Barom 
-----	----	-----	------	-----	-----	------	------	-------	-----	----- 
00:00	15.6	15.6	15.6	81	10.8	0	0	---	0.00	30.082 
00:05	15.4	15.4	15.4	81	10.6	0	1	248	0.00	30.082 
00:10	15.4	15.4	15.4	81	10.6	0	0	---	0.00	30.082 
00:15	15.2	15.2	15.2	81	10.4	0	0	---	0.00	30.076 
00:20	15.1	15.1	15.1	81	10.3	0	1	248	0.00	30.076 
00:25	14.9	14.9	14.9	82	10.4	0	1	248	0.00	30.076 
00:30	14.9	14.9	14.9	82	10.4	0	2	248	0.00	30.075 
00:35	14.9	14.9	14.9	83	10.7	0	2	248	0.00	30.075 
00:40	14.9	14.9	14.9	83	10.7	0	1	248	0.00	30.075 
00:45	14.9	14.9	14.9	83	10.7	0	1	248	0.00	30.072 
00:50	14.9	14.9	14.9	83	10.7	0	0	---	0.00	30.072 
00:55	14.8	14.8	14.8	83	10.6	0	0	---	0.00	30.072 
01:00	14.6	14.6	14.6	83	10.4	0	2	248	0.00	30.067 
01:05	14.8	14.8	14.8	84	10.9	0	2	248	0.00	30.067 
01:10	15.1	15.1	15.1	84	11.2	0	1	248	0.00	30.067 
01:15	15.1	15.1	15.1	84	11.2	0	1	248	0.00	30.070 
01:20	15.1	15.1	15.1	84	11.2	0	1	248	0.00	30.070 
01:25	14.9	14.9	14.9	84	11.0	0	2	248	0.00	30.070 
01:30	14.8	14.8	14.8	84	10.9	0	1	248	0.00	30.077 
01:35	14.4	14.4	14.4	84	10.5	0	1	248	0.00	30.077 
01:40	14.1	14.1	14.1	84	10.2	0	0	---	0.00	30.077 
01:45	13.8	13.8	13.8	84	9.9	0	0	---	0.00	30.081 
01:50	13.3	13.3	13.3	84	9.4	0	0	---	0.00	30.081 
01:55	12.9	12.9	12.9	84	9.0	0	0	---	0.00	30.081 
02:00	12.8	12.8	12.8	84	8.9	0	0	---	0.00	30.079 
02:05	12.6	12.6	12.6	84	8.7	0	0	---	0.00	30.079 
02:10	12.3	12.3	12.3	84	8.4	0	0	---	0.00	30.079 
02:15	12.1	12.1	12.1	84	8.2	0	0	---	0.00	30.080 
02:20	12.1	12.1	12.1	84	8.2	0	0	---	0.00	30.080 
02:25	11.9	11.9	11.9	84	8.0	0	0	---	0.00	30.080 
02:30	11.7	11.7	11.7	84	7.8	0	0	---	0.00	30.081 
02:35	11.6	11.6	11.6	85	8.0	0	0	---	0.00	30.081 
02:40	11.4	11.4	11.4	85	7.8	0	0	---	0.00	30.081 
02:45	11.2	11.2	11.2	85	7.6	0	0	---	0.00	30.088 
02:50	11.1	11.1	11.1	85	7.5	0	0	---	0.00	30.088 
02:55	11.1	11.1	11.1	85	7.5	0	0	---	0.00	30.088 
03:00	11.1	11.1	11.1	85	7.5	0	0	---	0.00	30.089 
03:05	11.2	11.2	11.2	86	7.8	0	0	---	0.00	30.089 
03:10	11.4	11.4	11.4	86	8.0	0	0	---	0.00	30.089 
03:15	11.7	11.7	11.7	86	8.3	0	0	---	0.00	30.086 
03:20	11.9	11.9	11.9	86	8.5	0	0	---	0.00	30.086 
03:25	12.3	12.3	12.3	87	9.2	0	0	---	0.00	30.086 
03:30	12.6	12.6	12.6	87	9.5	0	0	---	0.00	30.082 
03:35	13.3	13.3	13.3	88	10.4	0	0	---	0.00	30.082 
03:40	13.8	13.8	13.8	88	10.9	0	1	248	0.00	30.082 
03:45	14.1	14.1	14.1	88	11.2	0	1	248	0.00	30.077 
03:50	14.4	14.4	14.4	88	11.5	0	0	---	0.00	30.077 
03:55	14.9	14.9	14.9	88	12.0	0	1	248	0.00	30.077 
04:00	15.2	15.2	15.2	88	12.3	0	1	248	0.00	30.074 
04:05	15.6	15.6	15.6	88	12.7	0	1	248	0.00	30.074 
04:10	15.9	15.9	15.9	88	13.0	0	1	248	0.00	30.074 
04:15	16.2	16.2	16.2	88	13.3	0	2	248	0.00	30.069 
04:20	16.4	16.4	16.4	88	13.5	0	1	248	0.00	30.069 
04:25	16.5	16.5	16.5	88	13.6	0	1	248	0.00	30.069 
04:30	16.7	16.7	16.7	88	13.8	0	2	248	0.00	30.069 
04:35	17.0	17.0	17.0	88	14.1	1	3	248	0.00	30.069 
04:40	17.2	17.2	17.2	87	14.0	1	4	248	0.00	30.069 
04:45	17.3	17.3	17.3	86	13.8	1	5	248	0.00	30.073 
04:50	17.5	17.5	17.5	85	13.8	1	4	248	0.00	30.073 
04:55	17.5	17.5	17.5	84	13.5	1	3	248	0.00	30.073 
05:00	17.5	17.5	17.5	84	13.5	1	3	248	0.00	30.074 
05:05	17.5	17.5	17.5	83	13.2	1	3	248	0.00	30.074 
05:10	17.5	17.5	17.5	82	13.0	1	4	248	0.00	30.074 
05:15	17.7	17.7	17.7	82	13.2	0	2	248	0.00	30.077 
05:20	17.7	17.7	17.7	81	12.9	1	3	248	0.00	30.077 
05:25	17.7	17.7	17.7	81	12.9	0	1	248	0.00	30.077 
05:30	17.7	17.7	17.7	81	12.9	0	2	248	0.00	30.079 
05:35	17.8	17.8	17.8	80	12.7	0	1	248	0.00	30.079 
05:40	17.8	17.8	17.8	80	12.7	0	1	248	0.00	30.079 
05:45	17.8	17.8	17.8	80	12.7	0	3	248	0.00	30.081 
05:50	17.8	17.8	17.8	79	12.4	1	3	248	0.00	30.081 
05:55	18.0	18.0	18.0	79	12.6	0	3	248	0.00	30.081 
06:00	18.0	18.0	18.0	78	12.3	0	2	248	0.00	30.082 
06:05	18.0	18.0	18.0	78	12.3	0	1	248	0.00	30.082 
06:10	18.0	18.0	18.0	78	12.3	0	3	248	0.00	30.082 
06:15	18.0	18.0	18.0	78	12.3	0	3	248	0.00	30.083 
06:20	18.0	18.0	18.0	78	12.3	0	2	248	0.00	30.083 
06:25	18.0	18.0	18.0	78	12.3	0	1	248	0.00	30.083 
06:30	18.1	18.1	18.1	78	12.4	0	3	248	0.00	30.084 
06:35	18.1	18.1	18.1	78	12.4	0	2	248	0.00	30.084 
06:40	18.1	18.1	18.1	77	12.1	0	3	248	0.00	30.084 
06:45	18.1	18.1	18.1	77	12.1	0	1	248	0.00	30.089 
06:50	18.1	18.1	18.1	77	12.1	0	4	248	0.00	30.089 
06:55	18.1	18.1	18.1	77	12.1	0	1	248	0.00	30.089 
07:00	18.1	18.1	18.1	77	12.1	0	3	248	0.00	30.084 
07:05	18.1	18.1	18.1	76	11.8	0	2	248	0.00	30.084 
07:10	18.1	18.1	18.1	76	11.8	0	3	248	0.00	30.084 
07:15	18.1	18.1	18.1	76	11.8	1	4	248	0.00	30.086 
07:20	18.1	18.1	18.1	76	11.8	0	1	248	0.00	30.086 
07:25	18.1	18.1	18.1	76	11.8	0	2	248	0.00	30.086 
07:30	18.1	18.1	18.1	76	11.8	0	2	248	0.00	30.089 
07:35	18.1	18.1	18.1	76	11.8	1	4	248	0.00	30.089 
07:40	18.1	18.1	18.1	76	11.8	1	3	248	0.00	30.089 
07:45	18.1	18.1	18.1	76	11.8	1	3	248	0.00	30.097 
07:50	18.3	18.3	18.3	76	12.0	1	3	248	0.00	30.097 
07:55	18.3	18.3	18.3	76	12.0	0	3	248	0.00	30.097 
08:00	18.3	18.3	18.3	76	12.0	0	2	248	0.00	30.100 
08:05	18.3	18.3	18.3	76	12.0	1	3	248	0.00	30.100 
08:10	18.3	18.3	18.3	76	12.0	2	6	248	0.00	30.100 
08:15	18.3	18.3	18.3	76	12.0	2	6	248	0.00	30.108 
08:20	18.1	18.1	18.1	75	11.5	1	4	248	0.00	30.108 
08:25	18.1	18.1	18.1	75	11.5	1	5	248	0.00	30.108 
08:30	18.1	18.1	18.1	75	11.5	1	5	248	0.00	30.110 
08:35	18.1	18.1	18.1	75	11.5	2	5	248	0.00	30.110 
08:40	18.1	18.1	18.1	74	11.2	1	5	248	0.00	30.110 
08:45	18.1	18.1	18.1	74	11.2	0	3	248	0.00	30.113 
08:50	18.1	18.1	18.1	74	11.2	1	3	248	0.00	30.113 
08:55	18.1	18.1	18.1	74	11.2	1	4	248	0.00	30.113 
09:00	18.1	18.1	18.1	74	11.2	2	6	248	0.00	30.114 
09:05	18.1	18.1	18.1	73	10.9	2	5	248	0.00	30.114 
09:10	18.1	18.1	18.1	73	10.9	1	4	248	0.00	30.114 
09:15	18.1	18.1	18.1	73	10.9	1	3	248	0.00	30.119 
09:20	18.3	18.3	18.3	73	11.1	0	2	248	0.00	30.119 
09:25	18.4	18.4	18.4	73	11.2	0	3	248	0.00	30.119 
09:30	18.6	18.6	18.6	73	11.4	1	4	248	0.00	30.120 
09:35	18.8	18.8	18.8	72	11.3	0	2	248	0.00	30.120 
09:40	18.9	18.9	18.9	72	11.4	1	4	248	0.00	30.120 
09:45	18.9	18.9	18.9	71	11.1	1	3	248	0.00	30.118 
09:50	19.1	19.1	19.1	71	11.3	1	2	248	0.00	30.118 
09:55	19.2	19.2	19.2	71	11.4	1	4	248	0.00	30.118 
10:00	19.4	19.4	19.4	71	11.6	1	4	248	0.00	30.121 
10:05	19.4	19.4	19.4	70	11.2	1	6	248	0.00	30.121 
10:10	19.5	19.5	19.5	70	11.3	2	4	248	0.00	30.121 
10:15	19.5	19.5	19.5	70	11.3	1	3	248	0.00	30.128 
10:20	19.7	19.7	19.7	69	11.2	1	4	248	0.00	30.128 
10:25	19.9	19.9	19.9	69	11.4	1	4	248	0.00	30.128 
10:30	19.9	19.9	19.9	69	11.4	1	3	248	0.00	30.131 
10:35	20.0	20.0	20.0	68	11.2	1	3	248	0.00	30.131 
10:40	20.2	20.2	20.2	68	11.4	1	3	248	0.00	30.131 
10:45	20.3	20.3	20.3	67	11.1	2	6	248	0.00	30.131 
10:50	20.5	20.5	20.5	66	11.0	2	5	248	0.00	30.131 
10:55	20.5	20.5	20.5	66	11.0	2	5	270	0.00	30.131 
11:00	20.5	20.5	20.5	66	11.0	2	3	248	0.00	30.133 
11:05	20.8	20.8	20.8	66	11.3	1	2	248	0.00	30.133 
11:10	21.1	21.1	21.1	65	11.2	1	4	248	0.00	30.133 
11:15	21.1	21.1	21.1	64	10.9	1	4	248	0.00	30.129 
11:20	21.0	21.0	21.0	64	10.8	2	4	248	0.00	30.129 
11:25	21.0	21.0	21.0	64	10.8	2	4	248	0.00	30.129 
11:30	21.1	21.1	21.1	64	10.9	2	4	248	0.00	30.130 
11:35	21.3	21.3	21.3	64	11.0	2	3	270	0.00	30.130 
11:40	21.1	21.1	21.1	64	10.9	2	4	270	0.00	30.130 
11:45	21.3	21.3	21.3	65	11.4	2	6	248	0.00	30.125 
11:50	21.4	21.4	21.4	64	11.1	2	4	225	0.00	30.125 
11:55	21.8	21.8	21.8	65	11.9	2	4	248	0.00	30.125 
12:00	21.9	21.9	21.9	63	11.3	3	5	248	0.00	30.125 
12:05	22.4	22.4	22.4	64	12.1	2	5	248	0.00	30.125 
12:10	22.7	22.7	22.7	63	12.0	2	5	248	0.00	30.125 
12:15	23.0	23.0	23.0	63	12.3	2	4	225	0.00	30.122 
12:20	23.2	23.2	23.2	62	12.1	2	5	270	0.00	30.122 
12:25	23.2	23.2	23.2	62	12.1	2	5	270	0.00	30.122 
12:30	23.0	23.0	23.0	61	11.6	3	9	270	0.00	30.117 
12:35	22.7	22.7	22.7	62	11.7	2	5	292	0.00	30.117 
12:40	22.7	22.7	22.7	62	11.7	3	6	270	0.00	30.117 
12:45	22.9	22.9	22.9	62	11.9	3	6	270	0.00	30.114 
12:50	22.9	22.9	22.9	63	12.2	3	5	270	0.00	30.114 
12:55	23.0	23.0	23.0	62	11.9	2	5	248	0.00	30.114 
13:00	23.2	23.2	23.2	62	12.1	2	6	248	0.00	30.111 
13:05	23.3	23.3	23.3	62	12.2	3	5	270	0.00	30.111 
13:10	23.2	23.2	23.2	62	12.1	2	6	270	0.00	30.111 
13:15	23.5	23.5	23.5	62	12.4	3	5	248	0.00	30.114 
13:20	23.5	23.5	23.5	62	12.4	3	5	248	0.00	30.114 
13:25	23.6	23.6	23.6	62	12.5	2	4	248	0.00	30.114 
13:30	23.8	23.8	23.8	61	12.3	2	5	270	0.00	30.114 
13:35	23.9	23.9	23.9	61	12.4	2	6	270	0.00	30.114 
13:40	23.9	23.9	23.9	62	12.8	2	4	248	0.00	30.114 
13:45	23.9	23.9	23.9	62	12.8	2	6	248	0.00	30.114 
13:50	23.9	23.9	23.9	62	12.8	3	6	248	0.00	30.114 
13:55	23.9	23.9	23.9	62	12.8	2	5	248	0.00	30.114 
14:00	23.9	23.9	23.9	62	12.8	2	3	248	0.00	30.113 
14:05	23.9	23.9	23.9	62	12.8	2	5	270	0.00	30.113 
14:10	24.1	24.1	24.1	62	13.0	1	3	270	0.00	30.113 
14:15	24.2	24.2	24.2	62	13.1	2	5	248	0.00	30.114 
14:20	24.2	24.2	24.2	62	13.1	2	4	248	0.00	30.114 
14:25	24.4	24.4	24.4	62	13.3	2	5	225	0.00	30.114 
14:30	24.7	24.7	24.7	62	13.6	1	3	225	0.00	30.111 
14:35	24.7	24.7	24.7	62	13.6	2	4	225	0.00	30.111 
14:40	24.8	24.8	24.8	62	13.7	1	3	225	0.00	30.111 
14:45	25.0	25.0	25.0	62	13.8	1	4	225	0.00	30.114 
14:50	25.0	25.0	25.0	61	13.5	1	3	225	0.00	30.114 
14:55	25.0	25.0	25.0	61	13.5	1	4	225	0.00	30.114 
15:00	25.0	25.0	25.0	61	13.5	2	4	248	0.00	30.114 
15:05	25.1	25.1	25.1	61	13.6	1	3	248	0.00	30.114 
15:10	25.1	25.1	25.1	61	13.6	1	3	248	0.00	30.114 
15:15	25.1	25.1	25.1	60	13.2	2	4	248	0.00	30.111 
15:20	25.0	25.0	25.0	59	12.7	2	4	248	0.00	30.111 
15:25	24.8	24.8	24.8	60	12.9	2	4	292	0.00	30.111 
15:30	25.0	25.0	25.0	60	13.1	1	3	248	0.00	30.119 
15:35	25.0	25.0	25.0	60	13.1	1	3	248	0.00	30.119 
15:40	25.1	25.1	25.1	59	12.8	2	4	248	0.00	30.119 
15:45	25.1	25.1	25.1	59	12.8	1	3	225	0.00	30.118 
15:50	25.1	25.1	25.1	58	12.4	2	4	225	0.00	30.118 
15:55	25.1	25.1	25.1	57	12.0	2	5	248	0.00	30.118 
16:00	25.0	25.0	25.0	56	11.5	2	4	248	0.00	30.123 
16:05	25.0	25.0	25.0	57	11.9	1	2	270	0.00	30.123 
16:10	25.0	25.0	25.0	57	11.9	1	2	270	0.00	30.123 
16:15	24.8	24.8	24.8	57	11.8	1	3	270	0.00	30.123 
16:20	24.8	24.8	24.8	57	11.8	1	3	270	0.00	30.123 
16:25	24.7	24.7	24.7	57	11.7	1	5	270	0.00	30.123 
16:30	24.7	24.7	24.7	57	11.7	1	2	248	0.00	30.122 
16:35	24.5	24.5	24.5	57	11.5	1	2	248	0.00	30.122 
16:40	24.5	24.5	24.5	58	11.9	1	4	202	0.00	30.122 
16:45	24.5	24.5	24.5	58	11.9	1	2	202	0.00	30.122 
16:50	24.5	24.5	24.5	58	11.9	1	3	248	0.00	30.122 
16:55	24.5	24.5	24.5	58	11.9	1	4	248	0.00	30.122 
17:00	24.4	24.4	24.4	58	11.8	1	4	248	0.00	30.117 
17:05	24.4	24.4	24.4	58	11.8	1	4	248	0.00	30.117 
17:10	24.2	24.2	24.2	58	11.6	1	4	248	0.00	30.117 
17:15	24.1	24.1	24.1	57	11.1	1	4	248	0.00	30.121 
17:20	23.9	23.9	23.9	57	10.9	0	4	248	0.00	30.121 
17:25	23.9	23.9	23.9	58	11.3	0	1	248	0.00	30.121 
17:30	23.8	23.8	23.8	58	11.2	0	1	248	0.00	30.121 
17:35	23.6	23.6	23.6	58	11.0	0	2	248	0.00	30.121 
17:40	23.6	23.6	23.6	58	11.0	0	1	248	0.00	30.121 
17:45	23.5	23.5	23.5	58	10.9	0	2	248	0.00	30.120 
17:50	23.3	23.3	23.3	58	10.7	0	1	248	0.00	30.120 
17:55	23.2	23.2	23.2	58	10.6	0	1	248	0.00	30.120 
18:00	23.0	23.0	23.0	58	10.5	0	1	248	0.00	30.122 
18:05	22.7	22.7	22.7	58	10.2	0	1	248	0.00	30.122 
18:10	22.5	22.5	22.5	59	10.4	0	0	---	0.00	30.122 
18:15	22.2	22.2	22.2	59	10.1	0	2	248	0.00	30.124 
18:20	22.1	22.1	22.1	60	10.4	0	0	---	0.00	30.124 
18:25	21.8	21.8	21.8	60	10.1	0	1	248	0.00	30.124 
18:30	21.6	21.6	21.6	61	10.3	1	3	248	0.00	30.127 
18:35	21.6	21.6	21.6	61	10.3	1	2	248	0.00	30.127 
18:40	21.4	21.4	21.4	61	10.1	1	3	248	0.00	30.127 
18:45	21.4	21.4	21.4	62	10.4	0	2	248	0.00	30.129 
18:50	21.3	21.3	21.3	62	10.3	0	2	248	0.00	30.129 
18:55	21.1	21.1	21.1	62	10.1	0	2	248	0.00	30.129 
19:00	21.0	21.0	21.0	62	10.1	0	3	248	0.00	30.129 
19:05	20.8	20.8	20.8	62	9.9	0	3	248	0.00	30.129 
19:10	20.6	20.6	20.6	62	9.7	0	1	248	0.00	30.129 
19:15	20.5	20.5	20.5	63	9.9	0	2	248	0.00	30.129 
19:20	20.3	20.3	20.3	63	9.7	0	2	248	0.00	30.129 
19:25	20.2	20.2	20.2	63	9.7	0	1	248	0.00	30.129 
19:30	20.0	20.0	20.0	63	9.5	0	2	248	0.00	30.130 
19:35	19.9	19.9	19.9	64	9.7	0	1	248	0.00	30.130 
19:40	19.7	19.7	19.7	64	9.5	0	1	248	0.00	30.130 
19:45	19.7	19.7	19.7	65	9.9	0	1	248	0.00	30.134 
19:50	19.5	19.5	19.5	65	9.7	0	1	248	0.00	30.134 
19:55	19.4	19.4	19.4	65	9.6	0	2	248	0.00	30.134 
20:00	19.4	19.4	19.4	66	9.9	0	1	248	0.00	30.134 
20:05	19.2	19.2	19.2	66	9.7	0	0	---	0.00	30.134 
20:10	19.1	19.1	19.1	66	9.6	0	0	---	0.00	30.134 
20:15	18.8	18.8	18.8	67	9.7	0	0	---	0.00	30.132 
20:20	18.4	18.4	18.4	67	9.3	0	0	---	0.00	30.132 
20:25	18.1	18.1	18.1	68	9.3	0	0	---	0.00	30.132 
20:30	18.0	18.0	18.0	68	9.2	0	0	---	0.00	30.132 
20:35	17.7	17.7	17.7	69	9.3	0	0	---	0.00	30.132 
20:40	17.3	17.3	17.3	69	8.9	0	0	---	0.00	30.132 
20:45	17.2	17.2	17.2	70	9.1	0	0	---	0.00	30.137 
20:50	17.0	17.0	17.0	70	8.9	0	0	---	0.00	30.137 
20:55	16.7	16.7	16.7	71	9.0	0	0	---	0.00	30.137 
21:00	16.5	16.5	16.5	72	9.1	0	0	---	0.00	30.140 
21:05	16.5	16.5	16.5	72	9.1	0	0	---	0.00	30.140 
21:10	16.4	16.4	16.4	73	9.3	0	0	---	0.00	30.140 
21:15	16.4	16.4	16.4	73	9.3	0	0	---	0.00	30.140 
21:20	16.2	16.2	16.2	73	9.1	0	0	---	0.00	30.140 
21:25	16.1	16.1	16.1	73	9.0	0	0	---	0.00	30.140 
21:30	15.7	15.7	15.7	73	8.6	0	0	---	0.00	30.136 
21:35	15.4	15.4	15.4	73	8.3	0	0	---	0.00	30.136 
21:40	15.1	15.1	15.1	74	8.3	0	0	---	0.00	30.136 
21:45	14.8	14.8	14.8	74	8.0	0	0	---	0.00	30.134 
21:50	14.4	14.4	14.4	74	7.7	0	0	---	0.00	30.134 
21:55	14.1	14.1	14.1	75	7.7	0	0	---	0.00	30.134 
22:00	13.8	13.8	13.8	75	7.4	0	0	---	0.00	30.140 
22:05	13.5	13.5	13.5	75	7.1	0	0	---	0.00	30.140 
22:10	13.1	13.1	13.1	75	6.7	0	0	---	0.00	30.140 
22:15	12.8	12.8	12.8	76	6.7	0	0	---	0.00	30.145 
22:20	12.6	12.6	12.6	77	6.8	0	0	---	0.00	30.145 
22:25	12.4	12.4	12.4	77	6.6	0	0	---	0.00	30.145 
22:30	12.3	12.3	12.3	78	6.8	0	0	---	0.00	30.153 
22:35	12.3	12.3	12.3	78	6.8	0	0	---	0.00	30.153 
22:40	12.1	12.1	12.1	79	6.9	0	0	---	0.00	30.153 
22:45	11.9	11.9	11.9	79	6.7	0	0	---	0.00	30.155 
22:50	11.9	11.9	11.9	80	6.9	0	0	---	0.00	30.155 
22:55	11.7	11.7	11.7	80	6.7	0	0	---	0.00	30.155 
23:00	11.6	11.6	11.6	80	6.6	0	0	---	0.00	30.155 
23:05	11.2	11.2	11.2	80	6.3	0	0	---	0.00	30.155 
23:10	11.1	11.1	11.1	81	6.4	0	0	---	0.00	30.155 
23:15	10.9	10.9	10.9	81	6.2	0	0	---	0.00	30.163 
23:20	10.7	10.7	10.7	81	6.0	0	0	---	0.00	30.163 
23:25	10.7	10.7	10.7	81	6.0	0	0	---	0.00	30.163 
23:30	10.5	10.5	10.5	81	5.8	0	0	---	0.00	30.165 
23:35	10.2	10.2	10.2	81	5.6	0	0	---	0.00	30.165 
23:40	10.0	10.0	10.0	81	5.4	0	0	---	0.00	30.165 
23:45	10.0	10.0	10.0	82	5.6	0	0	---	0.00	30.166 
23:50	9.9	9.9	9.9	82	5.5	0	0	---	0.00	30.166 
23:55	9.7	9.7	9.7	82	5.3	0	0	---	0.00	30.166 

CoCoRaHS
IN-AL-39
A2 Web Hosting
Creative Commons License
GoDaddy
search engine by freefind advanced

loaded 2018-11-15 19:03:35 • last modified 2010-11-18 10:43:29
Privacy PolicyDisclaimer
• wx.awcolley.com is powered by PmWiki v.2002016 •
• all content (unless otherwise noted) © 2018 A W Colley